createdAt,value
2018-04-12T00:01:27.450Z,58.20
2018-04-12T00:03:55.270Z,58.10
2018-04-12T00:06:23.084Z,58.30
2018-04-12T00:08:50.874Z,58.40
2018-04-12T00:11:18.776Z,58.40
2018-04-12T00:13:46.516Z,58.40
2018-04-12T00:16:14.336Z,58.30
2018-04-12T00:18:42.857Z,59.00
2018-04-12T00:21:10.389Z,58.50
2018-04-12T00:23:39.051Z,58.60
2018-04-12T00:26:06.838Z,58.60
2018-04-12T00:28:34.646Z,58.50
2018-04-12T00:31:02.508Z,58.50
2018-04-12T00:33:30.046Z,58.50
2018-04-12T00:35:57.819Z,58.50
2018-04-12T00:38:25.592Z,58.50
2018-04-12T00:40:53.875Z,58.70
2018-04-12T00:43:22.996Z,58.80
2018-04-12T00:45:51.268Z,58.80
2018-04-12T00:48:19.610Z,58.80
2018-04-12T00:50:47.466Z,59.00
2018-04-12T00:53:37.205Z,59.20
2018-04-12T00:56:04.977Z,59.30
2018-04-12T00:58:33.037Z,59.20
2018-04-12T01:01:01.450Z,59.50
2018-04-12T01:03:29.220Z,59.50
2018-04-12T01:05:57.006Z,59.60
2018-04-12T01:08:24.764Z,59.70
2018-04-12T01:10:52.514Z,59.80
2018-04-12T01:13:20.319Z,59.80
2018-04-12T01:15:47.854Z,59.90
2018-04-12T01:18:15.427Z,60.00
2018-04-12T01:20:43.005Z,60.20
2018-04-12T01:23:10.814Z,60.10
2018-04-12T01:25:38.973Z,60.30
2018-04-12T01:28:06.716Z,60.30
2018-04-12T01:30:34.536Z,60.30
2018-04-12T01:33:15.199Z,61.00
2018-04-12T01:35:43.004Z,60.60
2018-04-12T01:38:10.790Z,60.50
2018-04-12T01:40:38.582Z,60.60
2018-04-12T01:43:06.336Z,60.70
2018-04-12T01:45:34.147Z,60.70
2018-04-12T01:48:02.669Z,60.80
2018-04-12T01:50:30.443Z,60.80
2018-04-12T01:52:58.574Z,60.80
2018-04-12T01:55:26.198Z,60.80
2018-04-12T01:57:54.874Z,60.60
2018-04-12T02:00:23.570Z,60.60
2018-04-12T02:02:51.455Z,60.50
2018-04-12T02:05:18.997Z,60.60
2018-04-12T02:07:47.060Z,60.50
2018-04-12T02:10:14.880Z,60.40
2018-04-12T02:12:42.670Z,60.30
2018-04-12T02:15:10.282Z,60.30
2018-04-12T02:17:38.041Z,60.30
2018-04-12T02:20:05.634Z,60.30
2018-04-12T02:22:33.175Z,60.40
2018-04-12T02:25:00.965Z,61.20
2018-04-12T02:27:28.916Z,60.60
2018-04-12T02:29:56.719Z,60.90
2018-04-12T02:32:25.118Z,61.10
2018-04-12T02:34:52.930Z,61.30
2018-04-12T02:37:21.462Z,61.40
2018-04-12T02:39:48.990Z,61.40
2018-04-12T02:42:16.787Z,61.40
2018-04-12T02:44:45.273Z,61.40
2018-04-12T02:47:13.392Z,61.40
2018-04-12T02:49:41.033Z,61.70
2018-04-12T02:52:08.552Z,61.20
2018-04-12T02:54:36.078Z,61.10
2018-04-12T02:57:04.680Z,61.30
2018-04-12T02:59:33.261Z,61.30
2018-04-12T03:02:01.138Z,61.30
2018-04-12T03:04:29.446Z,61.70
2018-04-12T03:06:57.286Z,61.40
2018-04-12T03:09:25.098Z,61.60
2018-04-12T03:11:52.916Z,61.80
2018-04-12T03:14:20.904Z,61.80
2018-04-12T03:16:49.023Z,61.90
2018-04-12T03:19:16.900Z,62.50
2018-04-12T03:21:44.758Z,61.90
2018-04-12T03:24:13.105Z,62.00
2018-04-12T03:26:40.643Z,62.00
2018-04-12T03:29:08.400Z,62.00
2018-04-12T03:31:36.255Z,61.90
2018-04-12T03:34:03.832Z,62.00
2018-04-12T03:36:31.612Z,61.90
2018-04-12T03:38:59.352Z,61.80
2018-04-12T03:41:26.946Z,61.70
2018-04-12T03:43:54.739Z,61.60
2018-04-12T03:46:24.271Z,61.60
2018-04-12T03:48:52.989Z,61.60
2018-04-12T03:51:20.511Z,61.50
2018-04-12T03:53:48.322Z,61.70
2018-04-12T03:56:15.859Z,61.90
2018-04-12T03:58:44.145Z,62.00
2018-04-12T04:01:12.792Z,62.10
2018-04-12T04:03:40.386Z,62.10
2018-04-12T04:06:07.905Z,62.20
2018-04-12T04:08:35.981Z,62.80
2018-04-12T04:11:03.764Z,63.20
2018-04-12T04:13:31.661Z,63.60
2018-04-12T04:19:11.210Z,64.20
2018-04-12T04:21:39.225Z,64.40
2018-04-12T04:24:07.094Z,65.00
2018-04-12T04:26:34.922Z,65.90
2018-04-12T04:29:02.805Z,66.40
2018-04-12T04:31:31.386Z,66.50
2018-04-12T04:33:59.782Z,66.00
2018-04-12T04:36:28.072Z,67.00
2018-04-12T04:38:56.886Z,66.00
2018-04-12T04:41:24.970Z,66.00
2018-04-12T04:43:52.732Z,65.20
2018-04-12T04:46:20.266Z,64.50
2018-04-12T04:48:48.050Z,63.60
2018-04-12T04:51:15.773Z,63.10
2018-04-12T04:53:45.094Z,61.80
2018-04-12T04:56:13.027Z,61.80
2018-04-12T04:58:40.900Z,61.10
2018-04-12T05:01:08.665Z,60.00
2018-04-12T05:03:36.225Z,59.60
2018-04-12T05:06:03.786Z,59.10
2018-04-12T05:08:31.624Z,58.90
2018-04-12T05:11:00.205Z,58.20
2018-04-12T05:13:28.802Z,57.40
2018-04-12T05:15:56.384Z,57.40
2018-04-12T05:18:24.228Z,57.00
2018-04-12T05:20:52.102Z,56.90
2018-04-12T05:23:19.910Z,57.00
2018-04-12T05:25:47.883Z,57.00
2018-04-12T05:28:15.757Z,57.30
2018-04-12T05:30:43.540Z,57.50
2018-04-12T05:33:11.433Z,57.10
2018-04-12T05:35:39.243Z,56.90
2018-04-12T05:38:07.875Z,57.10
2018-04-12T05:40:35.748Z,57.10
2018-04-12T05:43:03.301Z,57.10
2018-04-12T05:45:31.051Z,57.00
2018-04-12T05:47:58.860Z,57.20
2018-04-12T05:50:26.664Z,57.20
2018-04-12T05:52:55.004Z,57.80
2018-04-12T05:55:22.551Z,57.80
2018-04-12T05:57:50.324Z,58.00
2018-04-12T06:00:18.151Z,58.10
2018-04-12T06:02:46.737Z,58.60
2018-04-12T06:05:15.055Z,60.00
2018-04-12T06:07:42.899Z,59.80
2018-04-12T06:10:11.527Z,60.80
2018-04-12T06:12:39.606Z,60.80
2018-04-12T06:15:07.328Z,60.20
2018-04-12T06:17:35.908Z,58.90
2018-04-12T06:20:03.518Z,58.90
2018-04-12T06:22:31.296Z,59.40
2018-04-12T06:24:59.130Z,59.50
2018-04-12T06:27:27.775Z,60.50
2018-04-12T06:29:55.345Z,60.40
2018-04-12T06:32:22.892Z,60.70
2018-04-12T06:34:50.437Z,57.50
2018-04-12T06:37:18.023Z,55.90
2018-04-12T06:39:45.966Z,55.50
2018-04-12T06:42:14.536Z,54.60
2018-04-12T06:44:43.628Z,53.20
2018-04-12T06:47:12.316Z,52.40
2018-04-12T06:49:40.945Z,49.90
2018-04-12T06:52:08.752Z,49.80
2018-04-12T06:54:36.585Z,48.30
2018-04-12T06:57:04.457Z,46.70
2018-04-12T06:59:32.287Z,45.10
2018-04-12T07:02:00.869Z,44.40
2018-04-12T07:04:29.205Z,42.90
2018-04-12T07:06:57.081Z,42.60
2018-04-12T07:09:24.636Z,40.20
2018-04-12T07:11:52.472Z,38.40
2018-04-12T07:14:21.036Z,36.70
2018-04-12T07:16:49.510Z,36.10
2018-04-12T07:19:17.403Z,36.10
2018-04-12T07:21:46.018Z,34.70
2018-04-12T07:24:13.886Z,34.50
2018-04-12T07:26:41.440Z,34.60
2018-04-12T07:29:10.028Z,34.90
2018-04-12T07:31:38.824Z,35.60
2018-04-12T07:34:07.376Z,36.10
2018-04-12T07:36:35.216Z,36.00
2018-04-12T07:39:02.768Z,36.60
2018-04-12T07:41:30.616Z,36.80
2018-04-12T07:43:59.204Z,38.20
2018-04-12T07:46:27.801Z,38.40
2018-04-12T07:48:56.415Z,36.90
2018-04-12T07:51:24.249Z,36.90
2018-04-12T07:53:52.708Z,36.90
2018-04-12T07:56:20.509Z,36.70
2018-04-12T07:58:48.417Z,36.60
2018-04-12T08:01:16.413Z,37.00
2018-04-12T08:03:44.424Z,36.30
2018-04-12T08:06:12.300Z,35.70
2018-04-12T08:08:41.145Z,36.00
2018-04-12T08:11:08.776Z,35.90
2018-04-12T08:13:36.344Z,35.70
2018-04-12T08:16:04.201Z,35.40
2018-04-12T08:18:32.525Z,35.80
2018-04-12T08:21:00.147Z,35.70
2018-04-12T08:23:28.784Z,34.80
2018-04-12T08:25:56.605Z,34.60
2018-04-12T08:28:24.920Z,33.30
2018-04-12T08:30:52.487Z,33.30
2018-04-12T08:33:20.496Z,32.10
2018-04-12T08:35:48.300Z,31.80
2018-04-12T08:38:16.989Z,30.50
2018-04-12T08:40:45.715Z,30.70
2018-04-12T08:43:13.546Z,30.60
2018-04-12T08:45:42.175Z,31.50
2018-04-12T08:48:10.592Z,31.20
2018-04-12T08:50:38.387Z,31.30
2018-04-12T08:53:07.852Z,31.50
2018-04-12T08:55:37.156Z,31.40
2018-04-12T08:58:04.709Z,30.80
2018-04-12T09:00:33.389Z,30.80
2018-04-12T09:03:00.942Z,30.00
2018-04-12T09:05:28.833Z,29.70
2018-04-12T09:07:57.004Z,29.30
2018-04-12T09:10:24.563Z,29.60
2018-04-12T09:12:52.118Z,29.90
2018-04-12T09:15:21.308Z,30.30
2018-04-12T09:17:49.833Z,31.20
2018-04-12T09:20:17.464Z,30.80
2018-04-12T09:22:45.786Z,29.90
2018-04-12T09:25:13.576Z,29.90
2018-04-12T09:27:41.412Z,30.00
2018-04-12T09:30:09.005Z,30.90
2018-04-12T09:32:36.934Z,30.40
2018-04-12T09:35:06.093Z,30.00
2018-04-12T09:37:34.673Z,30.60
2018-04-12T09:40:02.236Z,30.10
2018-04-12T09:42:30.041Z,29.70
2018-04-12T09:44:58.475Z,30.00
2018-04-12T09:47:26.171Z,29.70
2018-04-12T09:49:54.008Z,29.80
2018-04-12T09:52:21.880Z,29.80
2018-04-12T09:54:49.758Z,30.10
2018-04-12T09:57:17.740Z,30.20
2018-04-12T09:59:45.632Z,30.00
2018-04-12T10:02:14.416Z,29.90
2018-04-12T10:04:47.885Z,30.00
2018-04-12T10:07:17.467Z,30.00
2018-04-12T10:09:46.054Z,30.00
2018-04-12T10:12:14.371Z,29.90
2018-04-12T10:14:42.343Z,29.80
2018-04-12T10:17:10.128Z,29.80
2018-04-12T10:19:37.844Z,29.90
2018-04-12T10:22:06.158Z,29.60
2018-04-12T10:24:34.026Z,29.60
2018-04-12T10:27:01.833Z,29.80
2018-04-12T10:29:29.675Z,30.00
2018-04-12T10:31:57.325Z,29.90
2018-04-12T10:34:25.127Z,30.50
2018-04-12T10:36:53.056Z,30.10
2018-04-12T10:39:21.767Z,30.10
2018-04-12T10:41:49.339Z,30.00
2018-04-12T10:44:17.796Z,30.30
2018-04-12T10:46:46.505Z,30.00
2018-04-12T10:49:14.496Z,30.00
2018-04-12T10:51:42.358Z,30.00
2018-04-12T10:54:10.156Z,30.20
2018-04-12T10:56:39.604Z,30.20
2018-04-12T10:59:08.186Z,30.00
2018-04-12T11:01:36.132Z,30.00
2018-04-12T11:04:03.950Z,29.70
2018-04-12T11:06:32.524Z,29.80
2018-04-12T11:09:01.107Z,29.30
2018-04-12T11:11:29.920Z,29.40
2018-04-12T11:13:58.434Z,29.30
2018-04-12T11:16:26.025Z,29.20
2018-04-12T11:18:53.588Z,28.40
2018-04-12T11:21:21.241Z,28.20
2018-04-12T11:23:49.064Z,27.90
2018-04-12T11:26:17.498Z,27.60
2018-04-12T11:28:45.355Z,27.60
2018-04-12T11:31:12.903Z,27.60
2018-04-12T11:33:40.711Z,27.60
2018-04-12T11:36:08.524Z,27.60
2018-04-12T11:38:36.537Z,27.60
2018-04-12T11:41:04.149Z,27.60
2018-04-12T11:43:31.998Z,27.00
2018-04-12T11:45:59.829Z,27.00
2018-04-12T11:48:28.380Z,26.80
2018-04-12T11:50:55.931Z,26.80
2018-04-12T11:53:23.726Z,26.60
2018-04-12T11:55:52.401Z,26.70
2018-04-12T11:58:20.319Z,26.60
2018-04-12T12:00:48.163Z,26.60
2018-04-12T12:03:17.463Z,26.40
2018-04-12T12:05:46.186Z,26.70
2018-04-12T12:08:13.750Z,26.60
2018-04-12T12:10:41.590Z,26.70
2018-04-12T12:13:10.225Z,26.60
2018-04-12T12:15:38.618Z,26.60
2018-04-12T12:18:06.538Z,26.60
2018-04-12T12:20:35.231Z,26.80
2018-04-12T12:23:03.826Z,26.80
2018-04-12T12:25:33.220Z,26.60
2018-04-12T12:28:01.808Z,26.60
2018-04-12T12:30:29.356Z,26.60
2018-04-12T12:32:57.223Z,26.60
2018-04-12T12:35:25.976Z,26.70
2018-04-12T12:37:54.764Z,26.70
2018-04-12T12:40:23.343Z,26.70
2018-04-12T12:42:50.905Z,26.60
2018-04-12T12:45:18.451Z,26.60
2018-04-12T12:47:47.117Z,26.80
2018-04-12T12:50:15.003Z,26.80
2018-04-12T12:52:42.585Z,26.90
2018-04-12T12:55:10.530Z,26.70
2018-04-12T12:57:38.102Z,26.50
2018-04-12T13:00:05.675Z,26.30
2018-04-12T13:02:34.274Z,26.20
2018-04-12T13:05:02.105Z,26.20
2018-04-12T13:07:29.670Z,26.20
2018-04-12T13:09:57.500Z,26.10
2018-04-12T13:12:25.346Z,26.20
2018-04-12T13:14:53.218Z,26.30
2018-04-12T13:17:21.094Z,26.30
2018-04-12T13:19:49.658Z,26.00
2018-04-12T13:22:17.626Z,26.00
2018-04-12T13:24:45.474Z,26.00
2018-04-12T13:27:14.153Z,25.80
2018-04-12T13:29:42.015Z,25.80
2018-04-12T13:32:10.414Z,25.80
2018-04-12T13:34:38.205Z,25.90
2018-04-12T13:37:06.602Z,25.80
2018-04-12T13:39:35.342Z,25.90
2018-04-12T13:42:03.186Z,25.90
2018-04-12T13:44:31.874Z,26.00
2018-04-12T13:47:00.166Z,26.00
2018-04-12T13:49:28.134Z,25.90
2018-04-12T13:51:56.138Z,25.70
2018-04-12T13:54:23.818Z,25.60
2018-04-12T13:56:51.774Z,25.60
2018-04-12T13:59:19.726Z,25.60
2018-04-12T14:01:48.309Z,26.80
2018-04-12T14:04:16.875Z,27.20
2018-04-12T14:06:45.600Z,27.30
2018-04-12T14:09:13.290Z,27.30
2018-04-12T14:11:40.919Z,27.50
2018-04-12T14:14:09.615Z,27.60
2018-04-12T14:16:38.666Z,27.70
2018-04-12T14:19:06.507Z,27.70
2018-04-12T14:21:34.378Z,27.90
2018-04-12T14:24:02.764Z,27.70
2018-04-12T14:26:30.565Z,27.80
2018-04-12T14:28:59.154Z,28.00
2018-04-12T14:31:27.522Z,28.00
2018-04-12T14:33:55.292Z,27.90
2018-04-12T14:36:23.218Z,28.00
2018-04-12T14:38:51.854Z,28.10
2018-04-12T14:41:19.992Z,28.10
2018-04-12T14:43:47.817Z,28.00
2018-04-12T14:46:15.707Z,28.10
2018-04-12T14:48:43.527Z,28.00
2018-04-12T14:51:11.418Z,27.90
2018-04-12T14:53:39.214Z,27.90
2018-04-12T14:56:07.042Z,27.90
2018-04-12T14:58:35.342Z,27.90
2018-04-12T15:01:03.884Z,27.50
2018-04-12T15:03:31.735Z,27.60
2018-04-12T15:05:59.836Z,27.70
2018-04-12T15:08:28.287Z,27.80
2018-04-12T15:10:56.083Z,27.80
2018-04-12T15:13:24.251Z,27.90
2018-04-12T15:15:52.906Z,27.90
2018-04-12T15:18:20.820Z,28.60
2018-04-12T15:20:48.694Z,28.80
2018-04-12T15:23:17.398Z,28.60
2018-04-12T15:25:45.240Z,28.70
2018-04-12T15:28:12.809Z,28.80
2018-04-12T15:30:41.626Z,29.20
2018-04-12T15:33:09.520Z,28.90
2018-04-12T15:35:38.130Z,28.90
2018-04-12T15:38:05.742Z,28.80
2018-04-12T15:40:34.994Z,29.10
2018-04-12T15:43:02.630Z,29.10
2018-04-12T15:45:30.191Z,29.30
2018-04-12T15:47:58.022Z,29.40
2018-04-12T15:50:25.858Z,29.30
2018-04-12T15:52:54.028Z,29.20
2018-04-12T15:55:21.875Z,29.20
2018-04-12T15:57:50.082Z,29.20
2018-04-12T16:00:18.774Z,28.90
2018-04-12T16:02:46.814Z,28.90
2018-04-12T16:05:15.504Z,28.90
2018-04-12T16:07:44.101Z,28.80
2018-04-12T16:10:12.044Z,28.80
2018-04-12T16:12:40.914Z,28.90
2018-04-12T16:15:08.834Z,29.10
2018-04-12T16:17:37.391Z,29.50
2018-04-12T16:20:06.734Z,29.80
2018-04-12T16:22:35.311Z,29.70
2018-04-12T16:25:04.010Z,29.80
2018-04-12T16:27:31.958Z,29.80
2018-04-12T16:29:59.788Z,29.90
2018-04-12T16:32:27.644Z,29.90
2018-04-12T16:34:55.481Z,29.70
2018-04-12T16:37:23.234Z,30.10
2018-04-12T16:39:53.006Z,29.60
2018-04-12T16:42:20.868Z,29.60
2018-04-12T16:44:48.736Z,29.70
2018-04-12T16:47:17.298Z,29.60
2018-04-12T16:49:45.853Z,29.40
2018-04-12T16:52:13.723Z,29.30
2018-04-12T16:54:41.546Z,29.70
2018-04-12T16:57:09.342Z,29.40
2018-04-12T16:59:37.648Z,29.50
2018-04-12T17:02:05.474Z,29.70
2018-04-12T17:04:33.137Z,29.90
2018-04-12T17:07:01.144Z,30.00
2018-04-12T17:09:32.752Z,30.00
2018-04-12T17:12:00.860Z,30.10
2018-04-12T17:14:28.688Z,30.10
2018-04-12T17:16:57.282Z,30.00
2018-04-12T17:19:25.917Z,30.00
2018-04-12T17:21:53.787Z,30.00
2018-04-12T17:24:21.690Z,30.00
2018-04-12T17:26:49.524Z,29.90
2018-04-12T17:29:17.182Z,30.00
2018-04-12T17:31:44.982Z,30.00
2018-04-12T17:34:12.849Z,30.00
2018-04-12T17:36:40.649Z,30.00
2018-04-12T17:39:09.266Z,30.00
2018-04-12T17:41:37.886Z,30.20
2018-04-12T17:44:05.728Z,30.10
2018-04-12T17:46:34.417Z,30.50
2018-04-12T17:49:03.036Z,30.60
2018-04-12T17:51:30.879Z,30.60
2018-04-12T17:53:59.339Z,30.80
2018-04-12T17:56:27.237Z,30.70
2018-04-12T17:58:55.930Z,31.10
2018-04-12T18:01:24.498Z,31.30
2018-04-12T18:03:52.395Z,31.20
2018-04-12T18:06:19.960Z,31.30
2018-04-12T18:08:47.699Z,31.50
2018-04-12T18:11:15.729Z,31.60
2018-04-12T18:13:43.330Z,31.80
2018-04-12T18:16:11.237Z,31.90
2018-04-12T18:18:39.959Z,32.00
2018-04-12T18:21:07.812Z,32.10
2018-04-12T18:23:35.394Z,33.10
2018-04-12T18:26:03.233Z,32.20
2018-04-12T18:28:32.026Z,32.50
2018-04-12T18:31:00.645Z,32.50
2018-04-12T18:33:28.931Z,32.50
2018-04-12T18:35:56.687Z,32.60
2018-04-12T18:38:26.176Z,32.70
2018-04-12T18:40:54.866Z,32.90
2018-04-12T18:43:23.386Z,33.10
2018-04-12T18:45:51.351Z,33.00
2018-04-12T18:48:19.194Z,33.20
2018-04-12T18:50:47.886Z,33.70
2018-04-12T18:53:16.522Z,34.10
2018-04-12T18:55:45.890Z,34.50
2018-04-12T18:58:13.622Z,34.50
2018-04-12T19:03:10.410Z,35.10
2018-04-12T19:05:38.734Z,35.60
2018-04-12T19:08:06.408Z,35.60
2018-04-12T19:10:34.211Z,35.70
2018-04-12T19:13:02.133Z,36.00
2018-04-12T19:15:30.044Z,36.00
2018-04-12T19:17:58.462Z,36.10
2018-04-12T19:20:27.083Z,36.30
2018-04-12T19:22:55.668Z,36.20
2018-04-12T19:25:23.758Z,36.30
2018-04-12T19:27:51.692Z,36.30
2018-04-12T19:30:20.018Z,36.50
2018-04-12T19:32:48.781Z,36.50
2018-04-12T19:35:16.469Z,36.60
2018-04-12T19:37:44.035Z,36.60
2018-04-12T19:40:11.974Z,36.80
2018-04-12T19:42:40.662Z,37.00
2018-04-12T19:45:08.877Z,37.00
2018-04-12T19:47:36.707Z,37.00
2018-04-12T19:50:06.120Z,37.30
2018-04-12T19:52:35.537Z,37.40
2018-04-12T19:55:03.403Z,37.40
2018-04-12T19:57:31.994Z,37.50
2018-04-12T19:59:59.911Z,37.70
2018-04-12T20:02:30.290Z,37.90
2018-04-12T20:04:58.105Z,37.90
2018-04-12T20:07:26.199Z,38.10
2018-04-12T20:09:54.915Z,38.40
2018-04-12T20:12:24.520Z,38.60
2018-04-12T20:14:52.350Z,38.50
2018-04-12T20:17:20.178Z,38.70
2018-04-12T20:19:48.774Z,38.90
2018-04-12T20:22:16.671Z,38.80
2018-04-12T20:24:48.293Z,38.90
2018-04-12T20:27:16.983Z,39.20
2018-04-12T20:29:45.560Z,39.30
2018-04-12T20:32:14.294Z,39.30
2018-04-12T20:34:43.054Z,39.50
2018-04-12T20:37:11.673Z,39.60
2018-04-12T20:39:39.675Z,39.60
2018-04-12T20:42:07.589Z,39.60
2018-04-12T20:44:36.196Z,39.90
2018-04-12T20:47:04.054Z,39.90
2018-04-12T20:49:32.698Z,40.20
2018-04-12T20:52:00.336Z,40.10
2018-04-12T20:54:28.688Z,40.20
2018-04-12T20:56:57.281Z,40.60
2018-04-12T20:59:25.632Z,40.60
2018-04-12T21:01:54.932Z,40.70
2018-04-12T21:04:22.838Z,40.70
2018-04-12T21:06:51.522Z,41.00
2018-04-12T21:09:20.350Z,41.10
2018-04-12T21:11:47.912Z,41.70
2018-04-12T21:14:15.477Z,41.40
2018-04-12T21:16:43.281Z,42.10
2018-04-12T21:19:11.116Z,41.60
2018-04-12T21:21:39.820Z,41.80
2018-04-12T21:24:07.488Z,41.90
2018-04-12T21:26:35.296Z,42.00
2018-04-12T21:29:03.129Z,42.20
2018-04-12T21:31:30.922Z,42.50
2018-04-12T21:33:58.755Z,42.60
2018-04-12T21:36:26.553Z,42.70
2018-04-12T21:38:54.419Z,42.80
2018-04-12T21:41:22.247Z,42.90
2018-04-12T21:43:50.582Z,43.10
2018-04-12T21:46:18.490Z,43.20
2018-04-12T21:48:46.851Z,43.60
2018-04-12T21:51:14.705Z,43.50
2018-04-12T21:53:42.595Z,43.60
2018-04-12T21:56:10.175Z,43.70
2018-04-12T21:58:37.813Z,43.70
2018-04-12T22:01:05.674Z,43.70
2018-04-12T22:03:33.518Z,43.90
2018-04-12T22:06:02.068Z,44.00
2018-04-12T22:08:30.134Z,44.30
2018-04-12T22:10:58.776Z,44.80
2018-04-12T22:13:31.178Z,44.80
2018-04-12T22:15:59.189Z,45.10
2018-04-12T22:18:27.004Z,45.30
2018-04-12T22:20:54.972Z,45.60
2018-04-12T22:23:23.755Z,45.70
2018-04-12T22:25:51.626Z,45.80
2018-04-12T22:28:19.464Z,46.00
2018-04-12T22:30:47.465Z,46.10
2018-04-12T22:33:15.360Z,46.10
2018-04-12T22:35:43.334Z,46.20
2018-04-12T22:38:11.162Z,46.30
2018-04-12T22:40:38.722Z,46.40
2018-04-12T22:43:06.598Z,46.50
2018-04-12T22:45:35.210Z,46.60
2018-04-12T22:48:02.843Z,46.70
2018-04-12T22:50:30.634Z,46.80
2018-04-12T22:52:58.978Z,47.10
2018-04-12T22:55:26.894Z,47.10
2018-04-12T22:57:55.450Z,47.40
2018-04-12T23:00:23.031Z,47.40
2018-04-12T23:02:51.618Z,47.40
2018-04-12T23:05:20.101Z,47.60
2018-04-12T23:07:48.505Z,47.60
2018-04-12T23:10:17.158Z,47.80
2018-04-12T23:12:45.070Z,47.80
2018-04-12T23:15:14.386Z,48.00
2018-04-12T23:17:42.259Z,48.00
2018-04-12T23:20:10.102Z,48.00
2018-04-12T23:22:38.678Z,48.20
2018-04-12T23:25:06.467Z,48.20
2018-04-12T23:27:35.281Z,48.40
2018-04-12T23:30:03.110Z,48.30
2018-04-12T23:32:32.548Z,48.40
2018-04-12T23:35:00.974Z,48.50
2018-04-12T23:37:28.910Z,48.50
2018-04-12T23:39:56.815Z,48.50
2018-04-12T23:42:24.657Z,48.80
2018-04-12T23:44:52.478Z,48.90
2018-04-12T23:47:20.525Z,49.00
2018-04-12T23:49:49.076Z,49.00
2018-04-12T23:52:17.536Z,49.10
2018-04-12T23:54:45.449Z,49.10
2018-04-12T23:57:13.340Z,49.20
2018-04-12T23:59:41.082Z,49.10
